Terminal Aerodrome Forecast
Issued by NWS Amarillo, TX

Home | Current Version | Previous Version | Text Only | Print | Product List | Glossary On
Versions: 1 2 3 4 5 6 7 8 9 10 11 12 13
000
FTUS44 KAMA 251100
TAFGUY
TAF
KGUY 251138Z 2512/2612 32013KT P6SM FEW250
     FM251600 33021G30KT P6SM FEW250
     FM260000 28009KT P6SM SKC=

USA.gov is the U.S. government's official web portal to all federal, state and local government web resources and services.